Hlavní strana
METAR-TAF:

METAR-TAF

Letiště :

Mezinárodní letiště Kimhe

Pusan, Jižní Korea

zeměpisná šířka: 35-11N, zeměpisná délka: 128-56E, výška: 4 m

Aktuální stav počasí

Zpráva byla vytvořena před 35 minutami, v 01:00 UTC
Severní vítr 4 kt
Teplota 7°C
Vlhkost vzduchu 49%
Tlak 1033 hPa
Viditelnost 10 km a více
Žádná oblačnost pod 1500 m, nevyskytují se cumulonimby.

METAR: RKPK 200100Z 01004KT CAVOK 07/M03 Q1033

Čas: 10:35 (01:35 UTC)

Předpověď počasí

Zpráva byla vytvořena před 2 hodinami a 35 minutami, v 23:00 UTC
Předpověď platná od 20 v 00 UTC do 21 v 06 UTC
Severoseverozápadní vítr 6 kt
Viditelnost 10 km a více
Skoro jasno ve výšce 3000 ft

TAF: RKPK 192300Z 2000/2106 33006KT 9999 FEW030 TX15/2006Z TN03/2022Z

Stav a předpovědi počasí z více než 4 000 letišť (zprávy METAR a TAF).

Červené a žluté tečky na mapě představují dostupné meteorologické stanice.

Když kurzor umístíte na tečku, zobrazí se název stanice.

Pak kliknutím zobrazíte stav a předpověď počasí.

Chcete-li změnit mapu, kliknutím na zelené tlačítko se znaménkem +mapu přiblížíte, kliknutím na zelené tlačítko se znaménkem – mapu oddálíte a kliknutím na zelené šipky přejdete na sousední mapy.


METAR-TAF: